createdAt,value
2022-09-06T00:02:33.155Z,3.37
2022-09-06T00:22:38.884Z,3.71
2022-09-06T00:42:44.766Z,3.30
2022-09-06T01:02:51.118Z,4.67
2022-09-06T01:22:56.933Z,3.98
2022-09-06T01:43:02.761Z,4.90
2022-09-06T02:03:08.979Z,4.42
2022-09-06T02:23:14.845Z,5.84
2022-09-06T02:43:21.129Z,5.37
2022-09-06T03:03:26.924Z,4.43
2022-09-06T03:23:33.216Z,6.42
2022-09-06T03:43:39.129Z,7.64
2022-09-06T04:03:45.476Z,5.81
2022-09-06T04:23:51.712Z,6.91
2022-09-06T04:43:57.996Z,5.87
2022-09-06T05:04:03.856Z,7.62
2022-09-06T05:24:09.663Z,7.83
2022-09-06T05:44:15.441Z,7.51
2022-09-06T06:04:21.688Z,6.93
2022-09-06T06:24:27.908Z,8.13
2022-09-06T06:44:34.170Z,9.91
2022-09-06T07:04:39.993Z,7.91
2022-09-06T07:24:46.277Z,7.42
2022-09-06T07:44:52.074Z,7.37
2022-09-06T08:04:57.879Z,7.80
2022-09-06T08:25:04.095Z,7.72
2022-09-06T08:45:09.914Z,7.81
2022-09-06T09:05:16.224Z,6.19
2022-09-06T09:25:22.475Z,5.98
2022-09-06T09:45:28.785Z,5.08
2022-09-06T10:05:35.029Z,5.99
2022-09-06T10:25:43.005Z,5.53
2022-09-06T10:45:47.207Z,4.39
2022-09-06T11:05:53.453Z,4.48
2022-09-06T11:25:59.249Z,3.58
2022-09-06T11:46:05.524Z,2.65
2022-09-06T12:06:11.721Z,3.28
2022-09-06T12:26:17.974Z,2.99
2022-09-06T12:46:24.362Z,2.60
2022-09-06T13:06:30.569Z,3.47
2022-09-06T13:26:36.859Z,4.06
2022-09-06T13:46:43.239Z,3.57
2022-09-06T14:06:49.522Z,5.18
2022-09-06T14:26:55.766Z,3.94
2022-09-06T14:47:02.033Z,4.00
2022-09-06T15:07:07.912Z,4.00
2022-09-06T15:27:15.333Z,3.03
2022-09-06T15:47:21.660Z,4.65
2022-09-06T16:07:27.901Z,3.91
2022-09-06T16:27:34.227Z,4.00
2022-09-06T16:47:40.490Z,3.94
2022-09-06T17:07:46.977Z,4.67
2022-09-06T17:27:52.814Z,3.50
2022-09-06T17:47:59.177Z,3.92
2022-09-06T18:08:06.241Z,3.66
2022-09-06T18:28:11.174Z,5.61
2022-09-06T18:48:17.605Z,4.83
2022-09-06T19:08:24.171Z,4.65
2022-09-06T19:28:30.455Z,7.16
2022-09-06T19:48:39.683Z,4.30
2022-09-06T20:08:46.285Z,4.74
2022-09-06T20:28:52.497Z,4.18
2022-09-06T20:48:58.787Z,4.35
2022-09-06T21:09:05.107Z,6.00
2022-09-06T21:29:11.396Z,5.01
2022-09-06T21:49:17.662Z,4.86
2022-09-06T22:09:23.924Z,4.62
2022-09-06T22:29:29.760Z,5.67
2022-09-06T22:49:35.588Z,5.70
2022-09-06T23:09:41.406Z,5.66
2022-09-06T23:29:47.257Z,4.87
2022-09-06T23:49:53.063Z,5.70
